sensor_id;sensor_type;location;lat;lon;timestamp;temperature;humidity
66568;DHT22;53422;49.296;6.900;2023-09-12T00:00:56;22.40;99.90
66568;DHT22;53422;49.296;6.900;2023-09-12T00:03:23;22.40;99.90
66568;DHT22;53422;49.296;6.900;2023-09-12T00:05:56;22.40;99.90
66568;DHT22;53422;49.296;6.900;2023-09-12T00:08:23;22.40;99.90
66568;DHT22;53422;49.296;6.900;2023-09-12T00:13:31;22.30;99.90
66568;DHT22;53422;49.296;6.900;2023-09-12T00:15:57;22.30;99.90
66568;DHT22;53422;49.296;6.900;2023-09-12T00:18:22;22.30;99.90
66568;DHT22;53422;49.296;6.900;2023-09-12T00:20:49;22.30;99.90
66568;DHT22;53422;49.296;6.900;2023-09-12T00:23:15;22.30;99.90
66568;DHT22;53422;49.296;6.900;2023-09-12T00:25:41;22.30;99.90
66568;DHT22;53422;49.296;6.900;2023-09-12T00:28:06;22.30;99.90
66568;DHT22;53422;49.296;6.900;2023-09-12T00:30:32;22.30;99.90
66568;DHT22;53422;49.296;6.900;2023-09-12T00:32:57;22.30;99.90
66568;DHT22;53422;49.296;6.900;2023-09-12T00:35:23;22.30;99.90
66568;DHT22;53422;49.296;6.900;2023-09-12T00:37:49;22.30;99.90
66568;DHT22;53422;49.296;6.900;2023-09-12T00:40:14;22.20;99.90
66568;DHT22;53422;49.296;6.900;2023-09-12T00:42:40;22.20;99.90
66568;DHT22;53422;49.296;6.900;2023-09-12T00:45:06;22.20;99.90
66568;DHT22;53422;49.296;6.900;2023-09-12T00:47:32;22.20;99.90
66568;DHT22;53422;49.296;6.900;2023-09-12T00:49:59;22.20;99.90
66568;DHT22;53422;49.296;6.900;2023-09-12T00:52:26;22.10;99.90
66568;DHT22;53422;49.296;6.900;2023-09-12T00:54:54;22.20;99.90
66568;DHT22;53422;49.296;6.900;2023-09-12T00:57:21;22.20;99.90
66568;DHT22;53422;49.296;6.900;2023-09-12T00:59:47;22.10;99.90
66568;DHT22;53422;49.296;6.900;2023-09-12T01:02:13;22.10;99.90
66568;DHT22;53422;49.296;6.900;2023-09-12T01:04:39;22.10;99.90
66568;DHT22;53422;49.296;6.900;2023-09-12T01:07:05;22.10;99.90
66568;DHT22;53422;49.296;6.900;2023-09-12T01:09:32;22.10;99.90
66568;DHT22;53422;49.296;6.900;2023-09-12T01:11:59;22.10;99.90
66568;DHT22;53422;49.296;6.900;2023-09-12T01:14:28;22.10;99.90
66568;DHT22;53422;49.296;6.900;2023-09-12T01:16:54;22.10;99.90
66568;DHT22;53422;49.296;6.900;2023-09-12T01:19:20;22.00;99.90
66568;DHT22;53422;49.296;6.900;2023-09-12T01:29:43;22.00;99.90
66568;DHT22;53422;49.296;6.900;2023-09-12T01:32:10;22.00;99.90
66568;DHT22;53422;49.296;6.900;2023-09-12T01:34:36;22.00;99.90
66568;DHT22;53422;49.296;6.900;2023-09-12T01:37:02;22.00;99.90
66568;DHT22;53422;49.296;6.900;2023-09-12T01:39:28;22.00;99.90
66568;DHT22;53422;49.296;6.900;2023-09-12T01:41:54;21.90;99.90
66568;DHT22;53422;49.296;6.900;2023-09-12T01:44:24;21.90;99.90
66568;DHT22;53422;49.296;6.900;2023-09-12T01:46:51;21.90;99.90
66568;DHT22;53422;49.296;6.900;2023-09-12T01:49:21;21.90;99.90
66568;DHT22;53422;49.296;6.900;2023-09-12T01:51:48;21.90;99.90
66568;DHT22;53422;49.296;6.900;2023-09-12T01:54:14;21.90;99.90
66568;DHT22;53422;49.296;6.900;2023-09-12T01:56:40;21.90;99.90
66568;DHT22;53422;49.296;6.900;2023-09-12T01:59:06;21.90;99.90
66568;DHT22;53422;49.296;6.900;2023-09-12T02:01:32;21.90;99.90
66568;DHT22;53422;49.296;6.900;2023-09-12T02:03:58;21.90;99.90
66568;DHT22;53422;49.296;6.900;2023-09-12T02:06:23;21.90;99.90
66568;DHT22;53422;49.296;6.900;2023-09-12T02:08:49;21.80;99.90
66568;DHT22;53422;49.296;6.900;2023-09-12T02:11:14;21.80;99.90
66568;DHT22;53422;49.296;6.900;2023-09-12T02:13:40;21.80;99.90
66568;DHT22;53422;49.296;6.900;2023-09-12T02:16:06;21.80;99.90
66568;DHT22;53422;49.296;6.900;2023-09-12T02:18:31;21.80;99.90
66568;DHT22;53422;49.296;6.900;2023-09-12T02:20:58;21.80;99.90
66568;DHT22;53422;49.296;6.900;2023-09-12T02:23:24;21.80;99.90
66568;DHT22;53422;49.296;6.900;2023-09-12T02:25:49;21.80;99.90
66568;DHT22;53422;49.296;6.900;2023-09-12T02:28:15;21.80;99.90
66568;DHT22;53422;49.296;6.900;2023-09-12T02:30:41;21.80;99.90
66568;DHT22;53422;49.296;6.900;2023-09-12T02:33:07;21.80;99.90
66568;DHT22;53422;49.296;6.900;2023-09-12T02:35:32;21.80;99.90
66568;DHT22;53422;49.296;6.900;2023-09-12T02:37:58;21.80;99.90
66568;DHT22;53422;49.296;6.900;2023-09-12T02:40:24;21.80;99.90
66568;DHT22;53422;49.296;6.900;2023-09-12T02:42:50;21.80;99.90
66568;DHT22;53422;49.296;6.900;2023-09-12T02:45:15;21.80;99.90
66568;DHT22;53422;49.296;6.900;2023-09-12T02:47:41;21.70;99.90
66568;DHT22;53422;49.296;6.900;2023-09-12T02:50:09;21.70;99.90
66568;DHT22;53422;49.296;6.900;2023-09-12T02:52:34;21.70;99.90
66568;DHT22;53422;49.296;6.900;2023-09-12T02:55:00;21.70;99.90
66568;DHT22;53422;49.296;6.900;2023-09-12T02:57:26;21.70;99.90
66568;DHT22;53422;49.296;6.900;2023-09-12T02:59:51;21.70;99.90
66568;DHT22;53422;49.296;6.900;2023-09-12T03:02:17;21.70;99.90
66568;DHT22;53422;49.296;6.900;2023-09-12T03:04:44;21.70;99.90
66568;DHT22;53422;49.296;6.900;2023-09-12T03:07:09;21.70;99.90
66568;DHT22;53422;49.296;6.900;2023-09-12T03:09:35;21.70;99.90
66568;DHT22;53422;49.296;6.900;2023-09-12T03:12:04;21.70;99.90
66568;DHT22;53422;49.296;6.900;2023-09-12T03:14:29;21.70;99.90
66568;DHT22;53422;49.296;6.900;2023-09-12T03:16:55;21.60;99.90
66568;DHT22;53422;49.296;6.900;2023-09-12T03:19:21;21.60;99.90
66568;DHT22;53422;49.296;6.900;2023-09-12T03:21:47;21.60;99.90
66568;DHT22;53422;49.296;6.900;2023-09-12T03:24:12;21.60;99.90
66568;DHT22;53422;49.296;6.900;2023-09-12T03:26:38;21.60;99.90
66568;DHT22;53422;49.296;6.900;2023-09-12T03:29:04;21.60;99.90
66568;DHT22;53422;49.296;6.900;2023-09-12T03:31:30;21.60;99.90
66568;DHT22;53422;49.296;6.900;2023-09-12T03:33:55;21.60;99.90
66568;DHT22;53422;49.296;6.900;2023-09-12T03:36:21;21.60;99.90
66568;DHT22;53422;49.296;6.900;2023-09-12T03:38:47;21.50;99.90
66568;DHT22;53422;49.296;6.900;2023-09-12T03:41:12;21.50;99.90
66568;DHT22;53422;49.296;6.900;2023-09-12T03:43:38;21.50;99.90
66568;DHT22;53422;49.296;6.900;2023-09-12T03:46:04;21.50;99.90
66568;DHT22;53422;49.296;6.900;2023-09-12T03:48:33;21.50;99.90
66568;DHT22;53422;49.296;6.900;2023-09-12T03:51:01;21.50;99.90
66568;DHT22;53422;49.296;6.900;2023-09-12T03:53:27;21.50;99.90
66568;DHT22;53422;49.296;6.900;2023-09-12T03:55:53;21.50;99.90
66568;DHT22;53422;49.296;6.900;2023-09-12T03:58:19;21.40;99.90
66568;DHT22;53422;49.296;6.900;2023-09-12T04:00:44;21.40;99.90
66568;DHT22;53422;49.296;6.900;2023-09-12T04:03:10;21.40;99.90
66568;DHT22;53422;49.296;6.900;2023-09-12T04:05:35;21.40;99.90
66568;DHT22;53422;49.296;6.900;2023-09-12T04:08:01;21.40;99.90
66568;DHT22;53422;49.296;6.900;2023-09-12T04:10:27;21.40;99.90
66568;DHT22;53422;49.296;6.900;2023-09-12T04:12:52;21.40;99.90
66568;DHT22;53422;49.296;6.900;2023-09-12T04:15:18;21.40;99.90
66568;DHT22;53422;49.296;6.900;2023-09-12T04:17:43;21.40;99.90
66568;DHT22;53422;49.296;6.900;2023-09-12T04:20:09;21.40;99.90
66568;DHT22;53422;49.296;6.900;2023-09-12T04:22:39;21.40;99.90
66568;DHT22;53422;49.296;6.900;2023-09-12T04:25:05;21.40;99.90
66568;DHT22;53422;49.296;6.900;2023-09-12T04:27:31;21.30;99.90
66568;DHT22;53422;49.296;6.900;2023-09-12T04:29:56;21.30;99.90
66568;DHT22;53422;49.296;6.900;2023-09-12T04:32:22;21.30;99.90
66568;DHT22;53422;49.296;6.900;2023-09-12T04:34:49;21.30;99.90
66568;DHT22;53422;49.296;6.900;2023-09-12T04:37:15;21.30;99.90
66568;DHT22;53422;49.296;6.900;2023-09-12T04:39:41;21.30;99.90
66568;DHT22;53422;49.296;6.900;2023-09-12T04:42:06;21.30;99.90
66568;DHT22;53422;49.296;6.900;2023-09-12T04:44:41;21.20;99.90
66568;DHT22;53422;49.296;6.900;2023-09-12T04:47:08;21.20;99.90
66568;DHT22;53422;49.296;6.900;2023-09-12T04:49:34;21.20;99.90
66568;DHT22;53422;49.296;6.900;2023-09-12T04:52:00;21.20;99.90
66568;DHT22;53422;49.296;6.900;2023-09-12T04:54:26;21.20;99.90
66568;DHT22;53422;49.296;6.900;2023-09-12T04:56:52;21.20;99.90
66568;DHT22;53422;49.296;6.900;2023-09-12T04:59:18;21.10;99.90
66568;DHT22;53422;49.296;6.900;2023-09-12T05:01:44;21.10;99.90
66568;DHT22;53422;49.296;6.900;2023-09-12T05:04:09;21.10;99.90
66568;DHT22;53422;49.296;6.900;2023-09-12T05:06:35;21.10;99.90
66568;DHT22;53422;49.296;6.900;2023-09-12T05:09:01;21.10;99.90
66568;DHT22;53422;49.296;6.900;2023-09-12T05:11:27;21.00;99.90
66568;DHT22;53422;49.296;6.900;2023-09-12T05:13:52;21.00;99.90
66568;DHT22;53422;49.296;6.900;2023-09-12T05:16:18;21.00;99.90
66568;DHT22;53422;49.296;6.900;2023-09-12T05:18:44;21.00;99.90
66568;DHT22;53422;49.296;6.900;2023-09-12T05:21:09;21.00;99.90
66568;DHT22;53422;49.296;6.900;2023-09-12T05:23:35;21.00;99.90
66568;DHT22;53422;49.296;6.900;2023-09-12T05:26:01;21.00;99.90
66568;DHT22;53422;49.296;6.900;2023-09-12T05:28:26;20.90;99.90
66568;DHT22;53422;49.296;6.900;2023-09-12T05:30:53;20.90;99.90
66568;DHT22;53422;49.296;6.900;2023-09-12T05:33:18;20.90;99.90
66568;DHT22;53422;49.296;6.900;2023-09-12T05:35:44;20.90;99.90
66568;DHT22;53422;49.296;6.900;2023-09-12T05:38:10;20.90;99.90
66568;DHT22;53422;49.296;6.900;2023-09-12T05:40:36;20.90;99.90
66568;DHT22;53422;49.296;6.900;2023-09-12T05:43:02;20.90;99.90
66568;DHT22;53422;49.296;6.900;2023-09-12T05:45:28;20.80;99.90
66568;DHT22;53422;49.296;6.900;2023-09-12T05:47:56;20.90;99.90
66568;DHT22;53422;49.296;6.900;2023-09-12T05:50:21;20.90;99.90
66568;DHT22;53422;49.296;6.900;2023-09-12T05:52:48;20.80;99.90
66568;DHT22;53422;49.296;6.900;2023-09-12T05:55:14;20.80;99.90
66568;DHT22;53422;49.296;6.900;2023-09-12T05:57:39;20.90;99.90
66568;DHT22;53422;49.296;6.900;2023-09-12T06:00:06;20.80;99.90
66568;DHT22;53422;49.296;6.900;2023-09-12T06:02:35;20.80;99.90
66568;DHT22;53422;49.296;6.900;2023-09-12T06:05:01;20.80;99.90
66568;DHT22;53422;49.296;6.900;2023-09-12T06:07:26;20.80;99.90
66568;DHT22;53422;49.296;6.900;2023-09-12T06:09:52;20.90;99.90
66568;DHT22;53422;49.296;6.900;2023-09-12T06:12:18;20.90;99.90
66568;DHT22;53422;49.296;6.900;2023-09-12T06:14:43;20.90;99.90
66568;DHT22;53422;49.296;6.900;2023-09-12T06:17:09;20.90;99.90
66568;DHT22;53422;49.296;6.900;2023-09-12T06:19:35;20.80;99.90
66568;DHT22;53422;49.296;6.900;2023-09-12T06:22:00;20.80;99.90
66568;DHT22;53422;49.296;6.900;2023-09-12T06:24:29;20.90;99.90
66568;DHT22;53422;49.296;6.900;2023-09-12T06:26:54;20.80;99.90
66568;DHT22;53422;49.296;6.900;2023-09-12T06:29:20;20.80;99.90
66568;DHT22;53422;49.296;6.900;2023-09-12T06:31:46;20.90;99.90
66568;DHT22;53422;49.296;6.900;2023-09-12T06:34:12;20.80;99.90
66568;DHT22;53422;49.296;6.900;2023-09-12T06:36:38;20.80;99.90
66568;DHT22;53422;49.296;6.900;2023-09-12T06:39:04;20.80;99.90
66568;DHT22;53422;49.296;6.900;2023-09-12T06:41:30;20.80;99.90
66568;DHT22;53422;49.296;6.900;2023-09-12T06:43:56;20.90;99.90
66568;DHT22;53422;49.296;6.900;2023-09-12T06:46:24;20.90;99.90
66568;DHT22;53422;49.296;6.900;2023-09-12T06:48:49;20.90;99.90
66568;DHT22;53422;49.296;6.900;2023-09-12T06:51:16;20.90;99.90
66568;DHT22;53422;49.296;6.900;2023-09-12T06:53:42;20.90;99.90
66568;DHT22;53422;49.296;6.900;2023-09-12T06:56:08;20.90;99.90
66568;DHT22;53422;49.296;6.900;2023-09-12T06:58:34;20.90;99.90
66568;DHT22;53422;49.296;6.900;2023-09-12T07:01:04;20.90;99.90
66568;DHT22;53422;49.296;6.900;2023-09-12T07:03:34;20.90;99.90
66568;DHT22;53422;49.296;6.900;2023-09-12T07:06:00;21.00;99.90
66568;DHT22;53422;49.296;6.900;2023-09-12T07:08:29;21.00;99.90
66568;DHT22;53422;49.296;6.900;2023-09-12T07:10:55;21.00;99.90
66568;DHT22;53422;49.296;6.900;2023-09-12T07:13:22;21.00;99.90
66568;DHT22;53422;49.296;6.900;2023-09-12T07:15:49;21.10;99.90
66568;DHT22;53422;49.296;6.900;2023-09-12T07:18:15;21.10;99.90
66568;DHT22;53422;49.296;6.900;2023-09-12T07:20:40;21.20;99.90
66568;DHT22;53422;49.296;6.900;2023-09-12T07:23:06;21.20;99.90
66568;DHT22;53422;49.296;6.900;2023-09-12T07:25:38;21.20;99.90
66568;DHT22;53422;49.296;6.900;2023-09-12T07:28:04;21.20;99.90
66568;DHT22;53422;49.296;6.900;2023-09-12T07:30:30;21.30;99.90
66568;DHT22;53422;49.296;6.900;2023-09-12T07:32:55;21.30;99.90
66568;DHT22;53422;49.296;6.900;2023-09-12T07:35:21;21.30;99.90
66568;DHT22;53422;49.296;6.900;2023-09-12T07:37:49;21.40;99.90
66568;DHT22;53422;49.296;6.900;2023-09-12T07:40:15;21.40;99.90
66568;DHT22;53422;49.296;6.900;2023-09-12T07:42:41;21.50;99.90
66568;DHT22;53422;49.296;6.900;2023-09-12T07:45:07;21.60;99.90
66568;DHT22;53422;49.296;6.900;2023-09-12T07:47:33;21.70;99.90
66568;DHT22;53422;49.296;6.900;2023-09-12T07:49:59;21.70;99.90
66568;DHT22;53422;49.296;6.900;2023-09-12T07:52:26;21.90;99.90
66568;DHT22;53422;49.296;6.900;2023-09-12T07:54:52;21.90;99.90
66568;DHT22;53422;49.296;6.900;2023-09-12T07:57:22;22.00;99.90
66568;DHT22;53422;49.296;6.900;2023-09-12T07:59:48;22.10;99.90
66568;DHT22;53422;49.296;6.900;2023-09-12T08:02:14;22.20;99.90
66568;DHT22;53422;49.296;6.900;2023-09-12T08:04:39;22.30;99.90
66568;DHT22;53422;49.296;6.900;2023-09-12T08:07:05;22.30;99.90
66568;DHT22;53422;49.296;6.900;2023-09-12T08:09:50;22.40;99.90
66568;DHT22;53422;49.296;6.900;2023-09-12T08:12:18;22.50;99.90
66568;DHT22;53422;49.296;6.900;2023-09-12T08:14:44;22.60;99.90
66568;DHT22;53422;49.296;6.900;2023-09-12T08:17:12;22.70;99.90
66568;DHT22;53422;49.296;6.900;2023-09-12T08:19:38;22.80;99.90
66568;DHT22;53422;49.296;6.900;2023-09-12T08:22:05;22.90;99.90
66568;DHT22;53422;49.296;6.900;2023-09-12T08:24:31;23.00;99.90
66568;DHT22;53422;49.296;6.900;2023-09-12T08:26:57;23.10;99.90
66568;DHT22;53422;49.296;6.900;2023-09-12T08:29:22;23.10;99.90
66568;DHT22;53422;49.296;6.900;2023-09-12T08:31:50;23.20;99.90
66568;DHT22;53422;49.296;6.900;2023-09-12T08:34:15;23.20;99.90
66568;DHT22;53422;49.296;6.900;2023-09-12T08:36:41;23.30;99.90
66568;DHT22;53422;49.296;6.900;2023-09-12T08:39:14;23.40;99.90
66568;DHT22;53422;49.296;6.900;2023-09-12T08:41:39;23.40;99.90
66568;DHT22;53422;49.296;6.900;2023-09-12T08:44:06;23.50;99.90
66568;DHT22;53422;49.296;6.900;2023-09-12T08:46:32;23.50;99.90
66568;DHT22;53422;49.296;6.900;2023-09-12T08:48:58;23.60;99.90
66568;DHT22;53422;49.296;6.900;2023-09-12T08:51:24;23.60;99.90
66568;DHT22;53422;49.296;6.900;2023-09-12T08:53:53;23.70;99.90
66568;DHT22;53422;49.296;6.900;2023-09-12T08:56:19;23.70;99.90
66568;DHT22;53422;49.296;6.900;2023-09-12T08:58:45;23.80;99.90
66568;DHT22;53422;49.296;6.900;2023-09-12T09:01:14;23.80;99.90
66568;DHT22;53422;49.296;6.900;2023-09-12T09:03:42;23.80;99.90
66568;DHT22;53422;49.296;6.900;2023-09-12T09:06:10;23.90;99.90
66568;DHT22;53422;49.296;6.900;2023-09-12T09:08:37;23.90;99.90
66568;DHT22;53422;49.296;6.900;2023-09-12T09:11:03;24.00;99.90
66568;DHT22;53422;49.296;6.900;2023-09-12T09:13:31;24.00;99.90
66568;DHT22;53422;49.296;6.900;2023-09-12T09:19:02;24.10;99.90
66568;DHT22;53422;49.296;6.900;2023-09-12T09:21:32;24.10;99.90
66568;DHT22;53422;49.296;6.900;2023-09-12T09:24:09;24.20;99.90
66568;DHT22;53422;49.296;6.900;2023-09-12T09:26:50;24.20;99.90
66568;DHT22;53422;49.296;6.900;2023-09-12T09:29:17;24.30;99.90
66568;DHT22;53422;49.296;6.900;2023-09-12T09:31:44;24.30;99.90
66568;DHT22;53422;49.296;6.900;2023-09-12T09:34:13;24.30;99.90
66568;DHT22;53422;49.296;6.900;2023-09-12T09:36:43;24.30;99.90
66568;DHT22;53422;49.296;6.900;2023-09-12T09:39:10;24.30;99.90
66568;DHT22;53422;49.296;6.900;2023-09-12T09:41:37;24.40;99.90
66568;DHT22;53422;49.296;6.900;2023-09-12T09:44:07;24.30;99.90
66568;DHT22;53422;49.296;6.900;2023-09-12T09:46:34;24.40;99.90
66568;DHT22;53422;49.296;6.900;2023-09-12T09:49:00;24.60;99.90
66568;DHT22;53422;49.296;6.900;2023-09-12T09:51:26;24.70;99.90
66568;DHT22;53422;49.296;6.900;2023-09-12T09:53:53;24.80;99.90
66568;DHT22;53422;49.296;6.900;2023-09-12T09:56:23;24.90;99.90
66568;DHT22;53422;49.296;6.900;2023-09-12T09:58:54;24.90;99.90
66568;DHT22;53422;49.296;6.900;2023-09-12T10:01:22;24.90;99.90
66568;DHT22;53422;49.296;6.900;2023-09-12T10:03:50;25.10;99.90
66568;DHT22;53422;49.296;6.900;2023-09-12T10:06:17;25.20;99.90
66568;DHT22;53422;49.296;6.900;2023-09-12T10:08:45;25.20;99.90
66568;DHT22;53422;49.296;6.900;2023-09-12T10:11:14;25.30;99.90
66568;DHT22;53422;49.296;6.900;2023-09-12T10:13:49;25.40;99.90
66568;DHT22;53422;49.296;6.900;2023-09-12T10:16:15;25.50;99.90
66568;DHT22;53422;49.296;6.900;2023-09-12T10:18:43;25.50;99.90
66568;DHT22;53422;49.296;6.900;2023-09-12T10:21:16;25.50;99.90
66568;DHT22;53422;49.296;6.900;2023-09-12T10:23:47;25.60;99.90
66568;DHT22;53422;49.296;6.900;2023-09-12T10:26:16;25.80;99.90
66568;DHT22;53422;49.296;6.900;2023-09-12T10:28:43;25.90;99.90
66568;DHT22;53422;49.296;6.900;2023-09-12T10:31:11;26.00;99.90
66568;DHT22;53422;49.296;6.900;2023-09-12T10:33:38;26.00;99.90
66568;DHT22;53422;49.296;6.900;2023-09-12T10:36:05;26.10;99.90
66568;DHT22;53422;49.296;6.900;2023-09-12T10:38:33;26.10;99.90
66568;DHT22;53422;49.296;6.900;2023-09-12T10:41:02;26.10;99.90
66568;DHT22;53422;49.296;6.900;2023-09-12T10:43:29;26.30;99.90
66568;DHT22;53422;49.296;6.900;2023-09-12T10:46:01;26.50;99.90
66568;DHT22;53422;49.296;6.900;2023-09-12T10:48:29;26.50;99.90
66568;DHT22;53422;49.296;6.900;2023-09-12T10:51:00;26.60;99.90
66568;DHT22;53422;49.296;6.900;2023-09-12T10:53:26;26.60;99.90
66568;DHT22;53422;49.296;6.900;2023-09-12T10:58:47;26.60;99.90
66568;DHT22;53422;49.296;6.900;2023-09-12T11:01:23;26.70;99.90
66568;DHT22;53422;49.296;6.900;2023-09-12T11:03:50;26.80;99.90
66568;DHT22;53422;49.296;6.900;2023-09-12T11:06:21;26.90;99.90
66568;DHT22;53422;49.296;6.900;2023-09-12T11:11:38;27.00;99.90
66568;DHT22;53422;49.296;6.900;2023-09-12T11:14:05;27.00;99.60
66568;DHT22;53422;49.296;6.900;2023-09-12T11:16:32;27.00;99.20
66568;DHT22;53422;49.296;6.900;2023-09-12T11:19:17;27.00;99.90
66568;DHT22;53422;49.296;6.900;2023-09-12T11:21:53;26.90;99.90
66568;DHT22;53422;49.296;6.900;2023-09-12T11:24:20;26.90;99.90
66568;DHT22;53422;49.296;6.900;2023-09-12T11:26:57;27.00;99.90
66568;DHT22;53422;49.296;6.900;2023-09-12T11:29:30;27.10;99.90
66568;DHT22;53422;49.296;6.900;2023-09-12T11:32:00;27.10;99.90
66568;DHT22;53422;49.296;6.900;2023-09-12T11:34:29;27.10;99.90
66568;DHT22;53422;49.296;6.900;2023-09-12T11:36:56;27.20;99.90
66568;DHT22;53422;49.296;6.900;2023-09-12T11:39:32;27.20;99.90
66568;DHT22;53422;49.296;6.900;2023-09-12T11:42:00;27.30;99.90
66568;DHT22;53422;49.296;6.900;2023-09-12T11:44:26;27.40;99.90
66568;DHT22;53422;49.296;6.900;2023-09-12T11:46:53;27.50;99.70
66568;DHT22;53422;49.296;6.900;2023-09-12T11:49:20;27.40;99.70
66568;DHT22;53422;49.296;6.900;2023-09-12T11:51:55;27.40;98.50
66568;DHT22;53422;49.296;6.900;2023-09-12T11:54:24;27.40;99.40
66568;DHT22;53422;49.296;6.900;2023-09-12T11:56:51;27.40;99.00
66568;DHT22;53422;49.296;6.900;2023-09-12T11:59:22;27.40;97.90
66568;DHT22;53422;49.296;6.900;2023-09-12T12:01:48;27.50;98.00
66568;DHT22;53422;49.296;6.900;2023-09-12T12:04:14;27.70;98.00
66568;DHT22;53422;49.296;6.900;2023-09-12T12:06:40;27.60;97.50
66568;DHT22;53422;49.296;6.900;2023-09-12T12:09:06;27.70;96.90
66568;DHT22;53422;49.296;6.900;2023-09-12T12:11:32;27.80;97.20
66568;DHT22;53422;49.296;6.900;2023-09-12T12:14:08;27.90;96.20
66568;DHT22;53422;49.296;6.900;2023-09-12T12:16:33;27.90;96.30
66568;DHT22;53422;49.296;6.900;2023-09-12T12:18:59;27.70;97.10
66568;DHT22;53422;49.296;6.900;2023-09-12T12:21:25;27.80;97.10
66568;DHT22;53422;49.296;6.900;2023-09-12T12:24:01;27.90;96.10
66568;DHT22;53422;49.296;6.900;2023-09-12T12:26:27;28.00;95.70
66568;DHT22;53422;49.296;6.900;2023-09-12T12:28:53;28.00;95.20
66568;DHT22;53422;49.296;6.900;2023-09-12T12:31:19;28.20;94.60
66568;DHT22;53422;49.296;6.900;2023-09-12T12:33:49;28.10;95.10
66568;DHT22;53422;49.296;6.900;2023-09-12T12:36:15;27.80;96.30
66568;DHT22;53422;49.296;6.900;2023-09-12T12:38:40;28.00;94.90
66568;DHT22;53422;49.296;6.900;2023-09-12T12:41:09;28.30;93.60
66568;DHT22;53422;49.296;6.900;2023-09-12T12:43:35;28.30;94.30
66568;DHT22;53422;49.296;6.900;2023-09-12T12:46:01;28.30;94.50
66568;DHT22;53422;49.296;6.900;2023-09-12T12:48:32;28.30;94.40
66568;DHT22;53422;49.296;6.900;2023-09-12T12:50:58;28.10;94.90
66568;DHT22;53422;49.296;6.900;2023-09-12T12:53:43;28.10;94.80
66568;DHT22;53422;49.296;6.900;2023-09-12T12:56:14;28.10;94.70
66568;DHT22;53422;49.296;6.900;2023-09-12T12:58:49;28.20;93.90
66568;DHT22;53422;49.296;6.900;2023-09-12T13:01:15;28.30;93.70
66568;DHT22;53422;49.296;6.900;2023-09-12T13:03:41;28.50;93.00
66568;DHT22;53422;49.296;6.900;2023-09-12T13:06:07;28.60;91.30
66568;DHT22;53422;49.296;6.900;2023-09-12T13:08:39;28.70;91.30
66568;DHT22;53422;49.296;6.900;2023-09-12T13:11:05;28.80;91.60
66568;DHT22;53422;49.296;6.900;2023-09-12T13:13:30;28.90;92.10
66568;DHT22;53422;49.296;6.900;2023-09-12T13:15:56;28.90;92.10
66568;DHT22;53422;49.296;6.900;2023-09-12T13:18:22;28.90;91.60
66568;DHT22;53422;49.296;6.900;2023-09-12T13:20:47;28.70;91.20
66568;DHT22;53422;49.296;6.900;2023-09-12T13:23:13;28.70;90.90
66568;DHT22;53422;49.296;6.900;2023-09-12T13:25:39;28.90;91.00
66568;DHT22;53422;49.296;6.900;2023-09-12T13:28:05;29.00;87.00
66568;DHT22;53422;49.296;6.900;2023-09-12T13:30:30;29.00;90.60
66568;DHT22;53422;49.296;6.900;2023-09-12T13:32:56;28.90;89.50
66568;DHT22;53422;49.296;6.900;2023-09-12T13:35:21;28.90;88.70
66568;DHT22;53422;49.296;6.900;2023-09-12T13:37:47;28.80;85.90
66568;DHT22;53422;49.296;6.900;2023-09-12T13:40:13;28.90;88.70
66568;DHT22;53422;49.296;6.900;2023-09-12T13:42:38;28.90;87.30
66568;DHT22;53422;49.296;6.900;2023-09-12T13:45:05;29.00;87.50
66568;DHT22;53422;49.296;6.900;2023-09-12T13:47:31;29.00;87.10
66568;DHT22;53422;49.296;6.900;2023-09-12T13:49:58;29.10;88.10
66568;DHT22;53422;49.296;6.900;2023-09-12T13:52:26;29.20;86.40
66568;DHT22;53422;49.296;6.900;2023-09-12T13:54:52;29.30;84.70
66568;DHT22;53422;49.296;6.900;2023-09-12T13:57:17;29.30;78.60
66568;DHT22;53422;49.296;6.900;2023-09-12T13:59:43;29.40;77.60
66568;DHT22;53422;49.296;6.900;2023-09-12T14:02:09;29.40;85.70
66568;DHT22;53422;49.296;6.900;2023-09-12T14:04:34;29.30;86.90
66568;DHT22;53422;49.296;6.900;2023-09-12T14:07:00;29.10;87.10
66568;DHT22;53422;49.296;6.900;2023-09-12T14:09:26;29.10;86.90
66568;DHT22;53422;49.296;6.900;2023-09-12T14:11:51;29.20;87.80
66568;DHT22;53422;49.296;6.900;2023-09-12T14:14:17;29.10;86.10
66568;DHT22;53422;49.296;6.900;2023-09-12T14:16:43;29.00;87.10
66568;DHT22;53422;49.296;6.900;2023-09-12T14:19:09;29.10;86.10
66568;DHT22;53422;49.296;6.900;2023-09-12T14:21:35;29.00;84.20
66568;DHT22;53422;49.296;6.900;2023-09-12T14:24:01;28.90;86.30
66568;DHT22;53422;49.296;6.900;2023-09-12T14:26:27;28.80;86.10
66568;DHT22;53422;49.296;6.900;2023-09-12T14:28:52;28.80;87.10
66568;DHT22;53422;49.296;6.900;2023-09-12T14:31:18;28.80;87.20
66568;DHT22;53422;49.296;6.900;2023-09-12T14:33:43;28.80;87.30
66568;DHT22;53422;49.296;6.900;2023-09-12T14:36:10;28.80;85.70
66568;DHT22;53422;49.296;6.900;2023-09-12T14:38:36;28.80;84.90
66568;DHT22;53422;49.296;6.900;2023-09-12T14:41:01;28.80;85.10
66568;DHT22;53422;49.296;6.900;2023-09-12T14:43:28;28.70;85.90
66568;DHT22;53422;49.296;6.900;2023-09-12T14:45:56;28.60;85.00
66568;DHT22;53422;49.296;6.900;2023-09-12T14:48:22;28.60;84.40
66568;DHT22;53422;49.296;6.900;2023-09-12T14:50:48;28.60;84.20
66568;DHT22;53422;49.296;6.900;2023-09-12T14:53:17;28.60;84.70
66568;DHT22;53422;49.296;6.900;2023-09-12T14:55:43;28.70;85.10
66568;DHT22;53422;49.296;6.900;2023-09-12T14:58:09;28.70;86.50
66568;DHT22;53422;49.296;6.900;2023-09-12T15:00:34;28.60;86.80
66568;DHT22;53422;49.296;6.900;2023-09-12T15:03:01;28.60;87.00
66568;DHT22;53422;49.296;6.900;2023-09-12T15:05:27;28.70;87.10
66568;DHT22;53422;49.296;6.900;2023-09-12T15:07:53;28.60;88.70
66568;DHT22;53422;49.296;6.900;2023-09-12T15:10:19;28.60;88.80
66568;DHT22;53422;49.296;6.900;2023-09-12T15:12:45;28.60;89.30
66568;DHT22;53422;49.296;6.900;2023-09-12T15:15:10;28.50;89.20
66568;DHT22;53422;49.296;6.900;2023-09-12T15:17:36;28.40;88.20
66568;DHT22;53422;49.296;6.900;2023-09-12T15:20:02;28.40;88.20
66568;DHT22;53422;49.296;6.900;2023-09-12T15:22:31;28.40;87.60
66568;DHT22;53422;49.296;6.900;2023-09-12T15:24:57;28.40;88.70
66568;DHT22;53422;49.296;6.900;2023-09-12T15:27:23;28.40;88.00
66568;DHT22;53422;49.296;6.900;2023-09-12T15:29:49;28.40;87.10
66568;DHT22;53422;49.296;6.900;2023-09-12T15:32:14;28.40;85.60
66568;DHT22;53422;49.296;6.900;2023-09-12T15:34:40;28.30;89.90
66568;DHT22;53422;49.296;6.900;2023-09-12T15:37:13;28.30;86.60
66568;DHT22;53422;49.296;6.900;2023-09-12T15:39:39;28.20;89.80
66568;DHT22;53422;49.296;6.900;2023-09-12T15:42:06;28.20;89.00
66568;DHT22;53422;49.296;6.900;2023-09-12T15:44:32;28.10;89.00
66568;DHT22;53422;49.296;6.900;2023-09-12T15:46:57;28.10;90.30